createdAt,value
2022-12-17T00:02:42.334Z,19.17
2022-12-17T00:05:27.688Z,17.40
2022-12-17T00:08:18.533Z,18.40
2022-12-17T00:11:04.290Z,19.20
2022-12-17T00:13:49.625Z,18.40
2022-12-17T00:16:34.927Z,19.30
2022-12-17T00:19:20.456Z,18.87
2022-12-17T00:22:05.666Z,18.73
2022-12-17T00:24:50.924Z,18.03
2022-12-17T00:27:37.893Z,19.63
2022-12-17T00:30:24.092Z,19.97
2022-12-17T00:33:10.673Z,20.07
2022-12-17T00:35:56.413Z,19.87
2022-12-17T00:38:42.092Z,20.00
2022-12-17T00:41:27.273Z,18.53
2022-12-17T00:44:12.476Z,21.17
2022-12-17T00:46:58.395Z,21.67
2022-12-17T00:49:44.154Z,21.50
2022-12-17T00:52:29.442Z,19.50
2022-12-17T00:55:14.786Z,22.00
2022-12-17T00:58:01.186Z,21.90
2022-12-17T01:00:46.667Z,21.40
2022-12-17T01:03:32.153Z,22.10
2022-12-17T01:06:22.062Z,21.33
2022-12-17T01:09:07.933Z,20.57
2022-12-17T01:11:56.550Z,20.97
2022-12-17T01:14:43.027Z,21.50
2022-12-17T01:17:28.758Z,20.97
2022-12-17T01:20:14.211Z,21.33
2022-12-17T01:22:59.577Z,21.10
2022-12-17T01:25:44.853Z,22.93
2022-12-17T01:28:30.177Z,20.63
2022-12-17T01:31:16.519Z,21.23
2022-12-17T01:34:01.974Z,21.30
2022-12-17T01:36:47.199Z,21.53
2022-12-17T01:39:32.479Z,19.40
2022-12-17T01:42:18.122Z,20.77
2022-12-17T01:45:09.039Z,21.27
2022-12-17T01:48:11.254Z,20.13
2022-12-17T01:51:09.184Z,21.67
2022-12-17T01:54:00.032Z,19.80
2022-12-17T01:56:46.390Z,19.67
2022-12-17T01:59:33.442Z,21.37
2022-12-17T02:02:19.104Z,22.47
2022-12-17T02:05:04.647Z,21.50
2022-12-17T02:08:02.256Z,20.63
2022-12-17T02:10:50.414Z,20.60
2022-12-17T02:13:42.930Z,21.27
2022-12-17T02:16:35.533Z,20.07
2022-12-17T02:19:57.051Z,20.00
2022-12-17T02:22:52.490Z,19.07
2022-12-17T02:25:54.790Z,19.73
2022-12-17T02:28:40.630Z,19.70
2022-12-17T02:31:27.974Z,18.50
2022-12-17T02:34:16.734Z,18.90
2022-12-17T02:37:03.801Z,19.80
2022-12-17T02:39:48.999Z,18.90
2022-12-17T02:42:35.905Z,19.27
2022-12-17T02:45:21.772Z,19.83
2022-12-17T02:48:08.241Z,19.00
2022-12-17T02:50:55.327Z,18.77
2022-12-17T02:53:40.787Z,18.70
2022-12-17T02:56:26.299Z,19.00
2022-12-17T02:59:12.170Z,19.17
2022-12-17T03:01:58.256Z,18.30
2022-12-17T03:04:43.747Z,18.00
2022-12-17T03:07:29.532Z,19.33
2022-12-17T03:10:14.824Z,17.90
2022-12-17T03:13:02.151Z,17.47
2022-12-17T03:15:47.494Z,18.97
2022-12-17T03:18:32.820Z,17.37
2022-12-17T03:21:18.088Z,20.43
2022-12-17T03:24:03.319Z,18.33
2022-12-17T03:26:50.248Z,17.03
2022-12-17T03:29:35.278Z,17.63
2022-12-17T03:32:20.523Z,16.07
2022-12-17T03:35:05.784Z,17.63
2022-12-17T03:37:51.329Z,19.03
2022-12-17T03:40:36.395Z,17.63
2022-12-17T03:43:26.370Z,16.97
2022-12-17T03:46:15.375Z,17.97
2022-12-17T03:49:00.773Z,17.70
2022-12-17T03:51:47.526Z,17.07
2022-12-17T03:54:32.816Z,15.97
2022-12-17T03:57:18.069Z,16.20
2022-12-17T04:00:03.239Z,18.20
2022-12-17T04:02:57.814Z,17.17
2022-12-17T04:05:43.694Z,17.50
2022-12-17T04:08:42.797Z,16.43
2022-12-17T04:11:32.309Z,16.10
2022-12-17T04:14:18.181Z,16.40
2022-12-17T04:17:03.600Z,15.13
2022-12-17T04:19:48.849Z,15.70
2022-12-17T04:22:36.165Z,16.00
2022-12-17T04:25:21.788Z,15.50
2022-12-17T04:28:07.054Z,15.27
2022-12-17T04:30:52.739Z,15.07
2022-12-17T04:33:38.458Z,15.23
2022-12-17T04:36:24.721Z,15.40
2022-12-17T04:39:10.155Z,14.40
2022-12-17T04:41:55.702Z,16.40
2022-12-17T04:44:41.107Z,16.33
2022-12-17T04:47:29.061Z,15.50
2022-12-17T04:50:14.197Z,15.23
2022-12-17T04:52:59.581Z,16.23
2022-12-17T04:55:44.971Z,15.17
2022-12-17T04:58:30.704Z,15.63
2022-12-17T05:01:16.135Z,15.83
2022-12-17T05:04:15.217Z,16.17
2022-12-17T05:07:00.555Z,16.43
2022-12-17T05:09:46.025Z,16.90
2022-12-17T05:12:31.775Z,16.17
2022-12-17T05:15:17.117Z,15.57
2022-12-17T05:18:03.019Z,16.47
2022-12-17T05:20:48.321Z,16.43
2022-12-17T05:23:33.901Z,16.37
2022-12-17T05:26:46.709Z,16.07
2022-12-17T05:29:32.529Z,17.37
2022-12-17T05:32:18.386Z,16.50
2022-12-17T05:35:03.743Z,16.87
2022-12-17T05:37:49.081Z,16.50
2022-12-17T05:40:34.420Z,17.47
2022-12-17T05:43:25.295Z,16.73
2022-12-17T05:46:10.809Z,15.83
2022-12-17T05:48:56.677Z,16.70
2022-12-17T05:51:42.376Z,16.93
2022-12-17T05:54:27.783Z,16.20
2022-12-17T05:57:13.691Z,15.77
2022-12-17T05:59:59.867Z,16.40
2022-12-17T06:02:45.256Z,17.17
2022-12-17T06:05:31.083Z,16.80
2022-12-17T06:08:27.580Z,15.33
2022-12-17T06:11:16.175Z,15.63
2022-12-17T06:14:01.557Z,15.00
2022-12-17T06:16:47.219Z,14.20
2022-12-17T06:19:32.597Z,15.50
2022-12-17T06:25:15.429Z,14.67
2022-12-17T06:28:00.413Z,13.87
2022-12-17T06:30:45.671Z,13.77
2022-12-17T06:33:31.605Z,14.30
2022-12-17T06:36:22.151Z,14.57
2022-12-17T06:39:08.096Z,14.33
2022-12-17T06:42:00.530Z,14.10
2022-12-17T06:44:49.880Z,13.87
2022-12-17T06:47:35.879Z,14.17
2022-12-17T06:50:21.128Z,14.30
2022-12-17T06:53:06.649Z,14.07
2022-12-17T06:55:52.171Z,13.50
2022-12-17T06:58:37.585Z,15.47
2022-12-17T07:01:23.331Z,14.13
2022-12-17T07:04:08.388Z,14.40
2022-12-17T07:06:53.744Z,14.67
2022-12-17T07:09:38.998Z,13.90
2022-12-17T07:12:24.317Z,13.03
2022-12-17T07:15:09.484Z,13.43
2022-12-17T07:17:54.903Z,13.97
2022-12-17T07:20:40.770Z,14.43
2022-12-17T07:23:27.169Z,13.93
2022-12-17T07:26:12.592Z,14.97
2022-12-17T07:28:57.828Z,14.47
2022-12-17T07:31:43.037Z,12.80
2022-12-17T07:34:28.232Z,13.50
2022-12-17T07:37:17.441Z,14.27
2022-12-17T07:40:06.028Z,13.77
2022-12-17T07:42:51.452Z,13.47
2022-12-17T07:45:37.030Z,13.30
2022-12-17T07:48:22.753Z,13.20
2022-12-17T07:51:09.556Z,13.50
2022-12-17T07:53:54.898Z,14.57
2022-12-17T07:56:40.631Z,15.23
2022-12-17T07:59:26.096Z,14.83
2022-12-17T08:02:11.541Z,15.57
2022-12-17T08:04:57.619Z,14.87
2022-12-17T08:07:44.612Z,13.17
2022-12-17T08:10:31.372Z,14.97
2022-12-17T08:13:19.580Z,19.97
2022-12-17T08:16:05.775Z,19.17
2022-12-17T08:18:51.810Z,15.40
2022-12-17T08:21:37.370Z,13.23
2022-12-17T08:24:23.369Z,14.47
2022-12-17T08:27:08.307Z,14.47
2022-12-17T08:29:53.569Z,15.57
2022-12-17T08:32:39.342Z,15.73
2022-12-17T08:35:24.612Z,15.40
2022-12-17T08:38:09.876Z,15.97
2022-12-17T08:40:55.128Z,19.20
2022-12-17T08:43:40.412Z,20.00
2022-12-17T08:46:26.180Z,20.20
2022-12-17T08:49:11.505Z,19.60
2022-12-17T08:51:56.873Z,18.90
2022-12-17T08:54:42.417Z,17.53
2022-12-17T08:57:31.872Z,15.70
2022-12-17T09:00:18.195Z,15.20
2022-12-17T09:03:04.119Z,15.63
2022-12-17T09:05:49.242Z,18.60
2022-12-17T09:08:35.445Z,18.03
2022-12-17T09:11:20.964Z,17.77
2022-12-17T09:14:06.555Z,17.07
2022-12-17T09:16:51.759Z,18.77
2022-12-17T09:19:36.979Z,17.43
2022-12-17T09:22:22.256Z,20.33
2022-12-17T09:25:07.742Z,19.93
2022-12-17T09:27:53.545Z,21.33
2022-12-17T09:30:39.215Z,21.57
2022-12-17T09:33:24.666Z,25.30
2022-12-17T09:36:09.864Z,23.47
2022-12-17T09:38:55.176Z,20.40
2022-12-17T09:41:51.938Z,21.17
2022-12-17T09:44:53.291Z,19.97
2022-12-17T09:47:44.769Z,18.90
2022-12-17T09:50:34.780Z,19.53
2022-12-17T09:53:22.455Z,16.33
2022-12-17T09:56:11.911Z,15.73
2022-12-17T09:58:59.181Z,14.80
2022-12-17T10:01:52.665Z,14.47
2022-12-17T10:04:48.500Z,15.30
2022-12-17T10:07:39.056Z,17.30
2022-12-17T10:10:50.804Z,17.10
2022-12-17T10:13:41.872Z,15.30
2022-12-17T10:16:47.612Z,15.03
2022-12-17T10:19:47.303Z,16.27
2022-12-17T10:22:38.960Z,15.43
2022-12-17T10:25:40.868Z,15.13
2022-12-17T10:28:32.482Z,15.97
2022-12-17T10:31:18.934Z,17.33
2022-12-17T10:34:05.212Z,16.87
2022-12-17T10:36:51.169Z,16.50
2022-12-17T10:39:40.325Z,16.77
2022-12-17T10:42:49.089Z,17.07
2022-12-17T10:45:39.468Z,17.53
2022-12-17T10:48:36.596Z,19.67
2022-12-17T10:51:44.046Z,19.00
2022-12-17T10:54:48.556Z,18.23
2022-12-17T10:57:51.819Z,20.10
2022-12-17T11:00:45.694Z,19.33
2022-12-17T11:03:49.092Z,18.73
2022-12-17T11:06:58.539Z,19.53
2022-12-17T11:10:03.675Z,19.77
2022-12-17T11:13:01.399Z,22.23
2022-12-17T11:16:07.724Z,23.10
2022-12-17T11:19:06.867Z,24.37
2022-12-17T11:22:14.929Z,20.77
2022-12-17T11:25:14.504Z,18.77
2022-12-17T11:28:04.321Z,19.43
2022-12-17T11:30:59.546Z,18.80
2022-12-17T11:34:14.729Z,19.77
2022-12-17T11:37:16.049Z,18.30
2022-12-17T11:40:21.662Z,17.80
2022-12-17T11:43:51.680Z,19.07
2022-12-17T11:46:40.195Z,19.07
2022-12-17T11:49:50.506Z,17.70
2022-12-17T11:52:58.795Z,18.03
2022-12-17T11:55:53.057Z,18.27
2022-12-17T11:58:50.927Z,18.30
2022-12-17T12:01:51.687Z,18.43
2022-12-17T12:04:49.382Z,19.87
2022-12-17T12:07:41.446Z,19.23
2022-12-17T12:10:47.770Z,19.27
2022-12-17T12:13:50.563Z,18.87
2022-12-17T12:16:58.598Z,18.43
2022-12-17T12:20:08.316Z,19.57
2022-12-17T12:23:18.394Z,21.00
2022-12-17T12:26:06.557Z,21.37
2022-12-17T12:29:05.001Z,20.40
2022-12-17T12:32:03.689Z,20.33
2022-12-17T12:34:52.086Z,20.07
2022-12-17T12:37:39.961Z,20.40
2022-12-17T12:40:47.594Z,20.03
2022-12-17T12:43:51.811Z,20.50
2022-12-17T12:46:45.522Z,19.37
2022-12-17T12:49:54.327Z,18.43
2022-12-17T12:52:43.355Z,16.67
2022-12-17T12:55:29.083Z,15.07
2022-12-17T12:58:17.759Z,15.27
2022-12-17T13:01:06.132Z,15.67
2022-12-17T13:03:56.008Z,15.47
2022-12-17T13:06:37.753Z,16.27
2022-12-17T13:09:30.690Z,16.70
2022-12-17T13:12:02.860Z,16.70
2022-12-17T13:14:44.198Z,15.93
2022-12-17T13:17:16.985Z,16.63
2022-12-17T13:19:59.850Z,15.20
2022-12-17T13:22:34.030Z,16.20
2022-12-17T13:25:18.052Z,16.80
2022-12-17T13:27:45.910Z,16.57
2022-12-17T13:30:22.098Z,16.00
2022-12-17T13:33:10.001Z,14.93
2022-12-17T13:35:46.894Z,15.03
2022-12-17T13:38:21.388Z,14.83
2022-12-17T13:41:16.327Z,15.53
2022-12-17T13:44:16.551Z,15.47
2022-12-17T13:46:47.643Z,17.50
2022-12-17T13:49:25.243Z,18.00
2022-12-17T13:52:19.669Z,17.33
2022-12-17T13:54:47.232Z,15.83
2022-12-17T13:57:23.179Z,15.97
2022-12-17T13:59:59.347Z,15.90
2022-12-17T14:02:34.516Z,16.40
2022-12-17T14:05:07.872Z,16.40
2022-12-17T14:07:39.084Z,16.97
2022-12-17T14:10:15.756Z,17.37
2022-12-17T14:12:43.492Z,16.83
2022-12-17T14:15:25.590Z,16.37
2022-12-17T14:17:54.068Z,16.40
2022-12-17T14:20:25.446Z,16.27
2022-12-17T14:22:55.949Z,15.33
2022-12-17T14:25:26.421Z,15.10
2022-12-17T14:27:55.084Z,14.60
2022-12-17T14:30:33.631Z,18.13
2022-12-17T14:33:00.351Z,14.77
2022-12-17T14:35:32.303Z,15.50
2022-12-17T14:37:59.074Z,17.83
2022-12-17T14:40:26.745Z,19.23
2022-12-17T14:43:01.652Z,19.83
2022-12-17T14:45:29.423Z,17.33
2022-12-17T14:47:58.117Z,18.53
2022-12-17T14:50:29.444Z,20.63
2022-12-17T14:52:58.033Z,22.40
2022-12-17T14:55:33.971Z,19.93
2022-12-17T14:58:20.871Z,20.30
2022-12-17T15:01:05.040Z,21.37
2022-12-17T15:03:37.307Z,29.30
2022-12-17T15:06:07.298Z,23.47
2022-12-17T15:08:40.044Z,24.27
2022-12-17T15:11:07.866Z,21.03
2022-12-17T15:13:35.443Z,19.67
2022-12-17T15:16:02.140Z,21.23
2022-12-17T15:18:28.894Z,21.37
2022-12-17T15:20:55.874Z,22.00
2022-12-17T15:23:23.686Z,23.53
2022-12-17T15:25:52.498Z,23.93
2022-12-17T15:28:20.966Z,25.30
2022-12-17T15:30:49.274Z,26.90
2022-12-17T15:33:16.337Z,25.70
2022-12-17T15:35:43.913Z,25.70
2022-12-17T15:38:12.413Z,25.87
2022-12-17T15:40:39.516Z,24.97
2022-12-17T15:43:12.302Z,24.00
2022-12-17T15:45:40.913Z,25.13
2022-12-17T15:48:08.911Z,23.57
2022-12-17T15:50:35.860Z,25.33
2022-12-17T15:53:02.713Z,26.27
2022-12-17T15:55:29.920Z,26.70
2022-12-17T15:57:56.709Z,26.53
2022-12-17T16:00:24.874Z,28.03
2022-12-17T16:02:51.928Z,26.63
2022-12-17T16:05:19.731Z,31.03
2022-12-17T16:07:49.889Z,32.47
2022-12-17T16:10:16.774Z,33.17
2022-12-17T16:12:43.930Z,35.20
2022-12-17T16:15:12.037Z,34.37
2022-12-17T16:17:38.850Z,36.73
2022-12-17T16:20:07.097Z,33.57
2022-12-17T16:22:35.476Z,32.37
2022-12-17T16:25:02.405Z,32.47
2022-12-17T16:27:29.316Z,30.73
2022-12-17T16:29:56.336Z,30.20
2022-12-17T16:32:23.135Z,27.17
2022-12-17T16:34:50.022Z,31.43
2022-12-17T16:37:16.874Z,28.63
2022-12-17T16:39:43.815Z,30.93
2022-12-17T16:42:11.558Z,28.87
2022-12-17T16:44:38.301Z,31.13
2022-12-17T16:47:05.131Z,31.57
2022-12-17T16:49:31.986Z,30.47
2022-12-17T16:51:59.577Z,30.37
2022-12-17T16:54:29.812Z,30.70
2022-12-17T16:56:56.655Z,33.17
2022-12-17T16:59:26.371Z,29.53
2022-12-17T17:01:53.556Z,30.67
2022-12-17T17:04:22.892Z,27.73
2022-12-17T17:06:52.927Z,32.33
2022-12-17T17:09:21.177Z,31.23
2022-12-17T17:11:51.526Z,31.33
2022-12-17T17:14:20.379Z,30.07
2022-12-17T17:16:47.038Z,32.83
2022-12-17T17:19:14.176Z,30.57
2022-12-17T17:21:43.057Z,28.87
2022-12-17T17:24:21.587Z,29.13
2022-12-17T17:26:50.554Z,29.00
2022-12-17T17:29:17.702Z,29.70
2022-12-17T17:34:32.125Z,28.67
2022-12-17T17:36:58.849Z,25.10
2022-12-17T17:39:25.848Z,37.17
2022-12-17T17:41:52.558Z,49.80
2022-12-17T17:44:19.527Z,49.40
2022-12-17T17:46:46.406Z,44.80
2022-12-17T17:49:13.553Z,32.97
2022-12-17T17:54:30.544Z,29.50
2022-12-17T17:56:57.349Z,26.57
2022-12-17T17:59:30.865Z,26.40
2022-12-17T18:02:01.001Z,31.10
2022-12-17T18:04:27.946Z,31.57
2022-12-17T18:09:41.835Z,29.17
2022-12-17T18:12:26.803Z,28.80
2022-12-17T18:17:40.740Z,25.87
2022-12-17T18:20:09.564Z,27.83
2022-12-17T18:22:36.963Z,25.13
2022-12-17T18:25:04.109Z,29.50
2022-12-17T18:27:30.809Z,27.27
2022-12-17T18:29:57.508Z,28.00
2022-12-17T18:32:24.233Z,30.03
2022-12-17T18:34:51.081Z,24.90
2022-12-17T18:37:17.890Z,24.33
2022-12-17T18:39:44.573Z,24.33
2022-12-17T18:42:30.086Z,28.03
2022-12-17T18:44:57.040Z,25.83
2022-12-17T18:47:25.520Z,27.77
2022-12-17T18:49:52.624Z,29.97
2022-12-17T18:52:19.841Z,25.53
2022-12-17T18:54:46.502Z,28.13
2022-12-17T18:57:13.457Z,24.07
2022-12-17T18:59:41.307Z,14.00
2022-12-17T19:02:12.629Z,27.47
2022-12-17T19:04:39.583Z,25.37
2022-12-17T19:07:06.484Z,24.53
2022-12-17T19:09:37.088Z,25.00
2022-12-17T19:12:06.273Z,25.17
2022-12-17T19:14:33.974Z,25.07
2022-12-17T19:17:00.994Z,26.50
2022-12-17T19:19:27.955Z,22.80
2022-12-17T19:21:55.274Z,22.07
2022-12-17T19:24:23.589Z,18.17
2022-12-17T19:26:51.742Z,20.67
2022-12-17T19:29:20.233Z,15.07
2022-12-17T19:31:47.680Z,21.57
2022-12-17T19:34:17.616Z,27.17
2022-12-17T19:36:44.947Z,23.80
2022-12-17T19:39:16.245Z,25.93
2022-12-17T19:41:43.068Z,23.47
2022-12-17T19:44:13.336Z,25.17
2022-12-17T19:46:41.550Z,25.53
2022-12-17T19:49:10.809Z,20.00
2022-12-17T19:51:40.371Z,26.03
2022-12-17T19:54:09.147Z,27.43
2022-12-17T19:56:36.853Z,26.27
2022-12-17T19:59:10.012Z,26.60
2022-12-17T20:01:40.520Z,27.43
2022-12-17T20:04:08.286Z,27.37
2022-12-17T20:06:35.565Z,26.23
2022-12-17T20:09:04.940Z,25.53
2022-12-17T20:11:34.725Z,25.90
2022-12-17T20:14:15.200Z,25.60
2022-12-17T20:16:45.420Z,24.23
2022-12-17T20:19:15.631Z,28.33
2022-12-17T20:21:42.990Z,27.90
2022-12-17T20:24:11.316Z,24.90
2022-12-17T20:26:39.033Z,25.13
2022-12-17T20:29:07.160Z,26.43
2022-12-17T20:31:35.214Z,21.80
2022-12-17T20:34:03.735Z,28.70
2022-12-17T20:36:31.393Z,26.30
2022-12-17T20:38:59.188Z,24.90
2022-12-17T20:41:28.486Z,26.37
2022-12-17T20:43:55.674Z,24.00
2022-12-17T20:46:25.092Z,22.80
2022-12-17T20:48:53.728Z,19.50
2022-12-17T20:51:28.290Z,24.20
2022-12-17T20:53:56.999Z,14.60
2022-12-17T20:56:27.315Z,23.03
2022-12-17T20:58:56.392Z,21.83
2022-12-17T21:01:25.443Z,21.80
2022-12-17T21:03:54.811Z,23.17
2022-12-17T21:06:24.168Z,20.40
2022-12-17T21:08:54.047Z,20.97
2022-12-17T21:11:27.355Z,19.57
2022-12-17T21:13:54.731Z,16.40
2022-12-17T21:16:27.838Z,24.73
2022-12-17T21:18:56.473Z,21.27
2022-12-17T21:21:27.410Z,20.90
2022-12-17T21:23:55.679Z,22.40
2022-12-17T21:26:29.305Z,22.00
2022-12-17T21:29:00.169Z,20.03
2022-12-17T21:31:42.862Z,22.97
2022-12-17T21:34:18.821Z,23.93
2022-12-17T21:36:45.919Z,25.40
2022-12-17T21:39:14.975Z,24.43
2022-12-17T21:41:45.107Z,15.57
2022-12-17T21:44:15.513Z,19.27
2022-12-17T21:46:43.998Z,23.97
2022-12-17T21:49:18.149Z,27.30
2022-12-17T21:51:45.192Z,27.30
2022-12-17T21:54:17.246Z,26.23
2022-12-17T21:56:46.111Z,17.00
2022-12-17T21:59:12.993Z,23.30
2022-12-17T22:01:39.914Z,30.67
2022-12-17T22:04:07.164Z,29.23
2022-12-17T22:06:51.424Z,23.77
2022-12-17T22:09:46.739Z,23.83
2022-12-17T22:12:36.249Z,28.70
2022-12-17T22:15:03.126Z,26.33
2022-12-17T22:17:30.396Z,28.87
2022-12-17T22:19:57.169Z,32.47
2022-12-17T22:22:24.580Z,30.60
2022-12-17T22:24:51.515Z,24.93
2022-12-17T22:27:18.373Z,29.17
2022-12-17T22:30:03.802Z,11.80
2022-12-17T22:32:49.257Z,20.37
2022-12-17T22:37:03.412Z,15.93
2022-12-17T22:40:13.453Z,25.73
2022-12-17T22:44:02.277Z,26.40
2022-12-17T22:44:42.342Z,27.07
2022-12-17T22:46:26.620Z,27.67
2022-12-17T22:48:53.779Z,27.23
2022-12-17T22:51:24.069Z,25.93
2022-12-17T22:54:04.955Z,29.17
2022-12-17T22:56:54.122Z,29.57
2022-12-17T22:59:24.138Z,23.00
2022-12-17T23:01:50.947Z,23.70
2022-12-17T23:04:18.259Z,28.10
2022-12-17T23:06:45.997Z,23.93
2022-12-17T23:09:14.634Z,26.17
2022-12-17T23:11:41.365Z,22.73
2022-12-17T23:14:08.847Z,20.37
2022-12-17T23:16:38.734Z,26.60
2022-12-17T23:19:06.779Z,24.27
2022-12-17T23:21:34.116Z,22.87
2022-12-17T23:24:01.106Z,22.70
2022-12-17T23:26:31.571Z,25.33
2022-12-17T23:29:02.238Z,24.43
2022-12-17T23:31:35.967Z,19.63
2022-12-17T23:34:03.453Z,24.23
2022-12-17T23:36:30.375Z,22.93
2022-12-17T23:38:58.433Z,27.67
2022-12-17T23:41:28.438Z,24.43
2022-12-17T23:43:56.303Z,26.03
2022-12-17T23:46:25.502Z,24.37
2022-12-17T23:48:52.433Z,20.97
2022-12-17T23:51:21.652Z,23.50
2022-12-17T23:53:49.017Z,22.30
2022-12-17T23:56:24.402Z,20.87
2022-12-17T23:58:57.643Z,24.73
